sensor_id;sensor_type;location;lat;lon;timestamp;P1;durP1;ratioP1;P2;durP2;ratioP2
43744;SDS011;29359;53.048;8.732;2023-04-30T00:00:15;8.65;;;2.80;;
43744;SDS011;29359;53.048;8.732;2023-04-30T00:02:16;6.40;;;2.42;;
43744;SDS011;29359;53.048;8.732;2023-04-30T00:04:18;6.78;;;2.88;;
43744;SDS011;29359;53.048;8.732;2023-04-30T00:06:19;5.82;;;2.03;;
43744;SDS011;29359;53.048;8.732;2023-04-30T00:08:21;13.23;;;3.17;;
43744;SDS011;29359;53.048;8.732;2023-04-30T00:10:23;5.70;;;2.28;;
43744;SDS011;29359;53.048;8.732;2023-04-30T00:12:24;8.32;;;2.63;;
43744;SDS011;29359;53.048;8.732;2023-04-30T00:14:26;6.25;;;2.30;;
43744;SDS011;29359;53.048;8.732;2023-04-30T00:16:27;11.75;;;2.58;;
43744;SDS011;29359;53.048;8.732;2023-04-30T00:18:29;8.07;;;2.35;;
43744;SDS011;29359;53.048;8.732;2023-04-30T00:20:30;12.38;;;2.85;;
43744;SDS011;29359;53.048;8.732;2023-04-30T00:22:32;6.57;;;2.13;;
43744;SDS011;29359;53.048;8.732;2023-04-30T00:24:34;8.45;;;3.80;;
43744;SDS011;29359;53.048;8.732;2023-04-30T00:26:35;11.05;;;3.25;;
43744;SDS011;29359;53.048;8.732;2023-04-30T00:28:37;12.00;;;5.18;;
43744;SDS011;29359;53.048;8.732;2023-04-30T00:30:38;10.90;;;3.95;;
43744;SDS011;29359;53.048;8.732;2023-04-30T00:32:40;12.13;;;2.80;;
43744;SDS011;29359;53.048;8.732;2023-04-30T00:34:41;8.70;;;2.13;;
43744;SDS011;29359;53.048;8.732;2023-04-30T00:36:43;5.30;;;2.38;;
43744;SDS011;29359;53.048;8.732;2023-04-30T00:38:44;11.80;;;3.17;;
43744;SDS011;29359;53.048;8.732;2023-04-30T00:40:46;6.32;;;2.67;;
43744;SDS011;29359;53.048;8.732;2023-04-30T00:42:47;9.65;;;2.55;;
43744;SDS011;29359;53.048;8.732;2023-04-30T00:44:49;9.73;;;2.17;;
43744;SDS011;29359;53.048;8.732;2023-04-30T00:46:51;4.50;;;2.50;;
43744;SDS011;29359;53.048;8.732;2023-04-30T00:48:52;5.70;;;2.22;;
43744;SDS011;29359;53.048;8.732;2023-04-30T00:50:54;7.82;;;2.45;;
43744;SDS011;29359;53.048;8.732;2023-04-30T00:52:56;8.20;;;2.30;;
43744;SDS011;29359;53.048;8.732;2023-04-30T00:54:59;7.30;;;2.90;;
43744;SDS011;29359;53.048;8.732;2023-04-30T00:57:01;8.45;;;2.75;;
43744;SDS011;29359;53.048;8.732;2023-04-30T00:59:05;7.80;;;2.78;;
43744;SDS011;29359;53.048;8.732;2023-04-30T01:01:07;8.45;;;2.80;;
43744;SDS011;29359;53.048;8.732;2023-04-30T01:03:09;8.02;;;2.85;;
43744;SDS011;29359;53.048;8.732;2023-04-30T01:05:10;8.63;;;2.83;;
43744;SDS011;29359;53.048;8.732;2023-04-30T01:07:12;6.40;;;2.67;;
43744;SDS011;29359;53.048;8.732;2023-04-30T01:09:13;8.20;;;3.20;;
43744;SDS011;29359;53.048;8.732;2023-04-30T01:13:27;6.60;;;2.78;;
43744;SDS011;29359;53.048;8.732;2023-04-30T01:15:33;6.32;;;2.33;;
43744;SDS011;29359;53.048;8.732;2023-04-30T01:19:56;13.52;;;5.82;;
43744;SDS011;29359;53.048;8.732;2023-04-30T01:21:59;8.43;;;3.13;;
43744;SDS011;29359;53.048;8.732;2023-04-30T01:26:52;5.68;;;2.97;;
43744;SDS011;29359;53.048;8.732;2023-04-30T01:29:07;9.15;;;4.22;;
43744;SDS011;29359;53.048;8.732;2023-04-30T01:31:13;5.95;;;3.42;;
43744;SDS011;29359;53.048;8.732;2023-04-30T01:33:15;5.32;;;2.42;;
43744;SDS011;29359;53.048;8.732;2023-04-30T01:35:16;8.48;;;2.45;;
43744;SDS011;29359;53.048;8.732;2023-04-30T01:37:22;8.98;;;3.28;;
43744;SDS011;29359;53.048;8.732;2023-04-30T01:39:46;7.70;;;2.70;;
43744;SDS011;29359;53.048;8.732;2023-04-30T01:46:29;9.55;;;2.92;;
43744;SDS011;29359;53.048;8.732;2023-04-30T01:51:15;7.68;;;3.08;;
43744;SDS011;29359;53.048;8.732;2023-04-30T01:53:27;11.07;;;4.07;;
43744;SDS011;29359;53.048;8.732;2023-04-30T01:55:43;6.88;;;3.30;;
43744;SDS011;29359;53.048;8.732;2023-04-30T01:57:56;3.88;;;2.80;;
43744;SDS011;29359;53.048;8.732;2023-04-30T01:59:59;5.43;;;2.90;;
43744;SDS011;29359;53.048;8.732;2023-04-30T02:02:01;10.98;;;3.20;;
43744;SDS011;29359;53.048;8.732;2023-04-30T02:04:03;8.02;;;3.50;;
43744;SDS011;29359;53.048;8.732;2023-04-30T02:06:05;8.10;;;3.08;;
43744;SDS011;29359;53.048;8.732;2023-04-30T02:08:07;10.88;;;3.78;;
43744;SDS011;29359;53.048;8.732;2023-04-30T02:10:09;6.95;;;3.65;;
43744;SDS011;29359;53.048;8.732;2023-04-30T02:12:12;5.70;;;3.53;;
43744;SDS011;29359;53.048;8.732;2023-04-30T02:14:13;8.10;;;3.20;;
43744;SDS011;29359;53.048;8.732;2023-04-30T02:16:15;9.85;;;3.38;;
43744;SDS011;29359;53.048;8.732;2023-04-30T02:18:17;13.38;;;3.50;;
43744;SDS011;29359;53.048;8.732;2023-04-30T02:20:18;9.27;;;3.40;;
43744;SDS011;29359;53.048;8.732;2023-04-30T02:22:20;7.63;;;3.13;;
43744;SDS011;29359;53.048;8.732;2023-04-30T02:24:21;6.18;;;3.25;;
43744;SDS011;29359;53.048;8.732;2023-04-30T02:26:23;6.20;;;3.03;;
43744;SDS011;29359;53.048;8.732;2023-04-30T02:28:24;6.00;;;3.35;;
43744;SDS011;29359;53.048;8.732;2023-04-30T02:30:26;7.50;;;3.33;;
43744;SDS011;29359;53.048;8.732;2023-04-30T02:32:28;8.82;;;3.50;;
43744;SDS011;29359;53.048;8.732;2023-04-30T02:34:29;9.73;;;3.47;;
43744;SDS011;29359;53.048;8.732;2023-04-30T02:36:31;6.38;;;3.67;;
43744;SDS011;29359;53.048;8.732;2023-04-30T02:38:36;8.27;;;3.67;;
43744;SDS011;29359;53.048;8.732;2023-04-30T02:40:39;6.57;;;3.28;;
43744;SDS011;29359;53.048;8.732;2023-04-30T02:42:42;9.82;;;3.65;;
43744;SDS011;29359;53.048;8.732;2023-04-30T02:44:43;16.38;;;4.93;;
43744;SDS011;29359;53.048;8.732;2023-04-30T02:46:45;11.88;;;3.60;;
43744;SDS011;29359;53.048;8.732;2023-04-30T02:48:46;9.25;;;3.38;;
43744;SDS011;29359;53.048;8.732;2023-04-30T02:50:48;7.82;;;3.58;;
43744;SDS011;29359;53.048;8.732;2023-04-30T02:52:49;7.82;;;3.45;;
43744;SDS011;29359;53.048;8.732;2023-04-30T02:54:51;12.65;;;3.60;;
43744;SDS011;29359;53.048;8.732;2023-04-30T02:56:52;6.30;;;3.55;;
43744;SDS011;29359;53.048;8.732;2023-04-30T02:58:54;7.32;;;3.50;;
43744;SDS011;29359;53.048;8.732;2023-04-30T03:00:55;7.78;;;3.78;;
43744;SDS011;29359;53.048;8.732;2023-04-30T03:02:57;12.10;;;4.20;;
43744;SDS011;29359;53.048;8.732;2023-04-30T03:04:59;7.80;;;3.30;;
43744;SDS011;29359;53.048;8.732;2023-04-30T03:07:00;6.45;;;3.58;;
43744;SDS011;29359;53.048;8.732;2023-04-30T03:09:03;7.20;;;3.55;;
43744;SDS011;29359;53.048;8.732;2023-04-30T03:11:05;5.95;;;3.22;;
43744;SDS011;29359;53.048;8.732;2023-04-30T03:13:06;7.55;;;3.65;;
43744;SDS011;29359;53.048;8.732;2023-04-30T03:15:08;10.38;;;3.92;;
43744;SDS011;29359;53.048;8.732;2023-04-30T03:17:10;7.57;;;3.70;;
43744;SDS011;29359;53.048;8.732;2023-04-30T03:19:11;7.35;;;3.78;;
43744;SDS011;29359;53.048;8.732;2023-04-30T03:21:13;6.18;;;3.63;;
43744;SDS011;29359;53.048;8.732;2023-04-30T03:23:15;7.30;;;3.72;;
43744;SDS011;29359;53.048;8.732;2023-04-30T03:25:16;8.13;;;4.20;;
43744;SDS011;29359;53.048;8.732;2023-04-30T03:27:18;9.55;;;3.47;;
43744;SDS011;29359;53.048;8.732;2023-04-30T03:29:19;6.45;;;3.88;;
43744;SDS011;29359;53.048;8.732;2023-04-30T03:31:21;7.47;;;3.92;;
43744;SDS011;29359;53.048;8.732;2023-04-30T03:33:23;5.05;;;3.85;;
43744;SDS011;29359;53.048;8.732;2023-04-30T03:35:24;7.50;;;4.50;;
43744;SDS011;29359;53.048;8.732;2023-04-30T03:37:26;8.45;;;3.45;;
43744;SDS011;29359;53.048;8.732;2023-04-30T03:39:27;8.88;;;3.63;;
43744;SDS011;29359;53.048;8.732;2023-04-30T03:41:29;11.98;;;4.22;;
43744;SDS011;29359;53.048;8.732;2023-04-30T03:43:30;6.72;;;3.65;;
43744;SDS011;29359;53.048;8.732;2023-04-30T03:45:32;12.15;;;3.83;;
43744;SDS011;29359;53.048;8.732;2023-04-30T03:47:34;9.10;;;4.22;;
43744;SDS011;29359;53.048;8.732;2023-04-30T03:49:37;6.25;;;4.13;;
43744;SDS011;29359;53.048;8.732;2023-04-30T03:51:39;7.90;;;3.40;;
43744;SDS011;29359;53.048;8.732;2023-04-30T03:53:42;7.18;;;3.50;;
43744;SDS011;29359;53.048;8.732;2023-04-30T03:55:43;5.88;;;3.30;;
43744;SDS011;29359;53.048;8.732;2023-04-30T03:57:45;9.23;;;4.03;;
43744;SDS011;29359;53.048;8.732;2023-04-30T03:59:47;11.35;;;4.20;;
43744;SDS011;29359;53.048;8.732;2023-04-30T04:01:49;7.65;;;4.47;;
43744;SDS011;29359;53.048;8.732;2023-04-30T04:03:51;5.80;;;4.13;;
43744;SDS011;29359;53.048;8.732;2023-04-30T04:05:52;13.00;;;4.13;;
43744;SDS011;29359;53.048;8.732;2023-04-30T04:07:54;8.15;;;3.63;;
43744;SDS011;29359;53.048;8.732;2023-04-30T04:09:55;11.43;;;4.15;;
43744;SDS011;29359;53.048;8.732;2023-04-30T04:11:57;11.38;;;4.38;;
43744;SDS011;29359;53.048;8.732;2023-04-30T04:13:59;6.43;;;3.97;;
43744;SDS011;29359;53.048;8.732;2023-04-30T04:16:01;10.88;;;3.90;;
43744;SDS011;29359;53.048;8.732;2023-04-30T04:18:03;7.40;;;3.67;;
43744;SDS011;29359;53.048;8.732;2023-04-30T04:20:07;11.60;;;4.03;;
43744;SDS011;29359;53.048;8.732;2023-04-30T04:22:10;4.75;;;4.28;;
43744;SDS011;29359;53.048;8.732;2023-04-30T04:24:12;9.05;;;3.90;;
43744;SDS011;29359;53.048;8.732;2023-04-30T04:26:13;5.95;;;3.40;;
43744;SDS011;29359;53.048;8.732;2023-04-30T04:28:15;9.90;;;4.57;;
43744;SDS011;29359;53.048;8.732;2023-04-30T04:30:19;5.07;;;4.10;;
43744;SDS011;29359;53.048;8.732;2023-04-30T04:32:21;8.20;;;4.00;;
43744;SDS011;29359;53.048;8.732;2023-04-30T04:34:23;8.25;;;4.28;;
43744;SDS011;29359;53.048;8.732;2023-04-30T04:36:25;5.80;;;4.03;;
43744;SDS011;29359;53.048;8.732;2023-04-30T04:38:30;8.15;;;4.75;;
43744;SDS011;29359;53.048;8.732;2023-04-30T04:40:32;6.97;;;3.70;;
43744;SDS011;29359;53.048;8.732;2023-04-30T04:42:35;4.22;;;3.83;;
43744;SDS011;29359;53.048;8.732;2023-04-30T04:44:38;6.90;;;4.25;;
43744;SDS011;29359;53.048;8.732;2023-04-30T04:46:41;8.82;;;4.25;;
43744;SDS011;29359;53.048;8.732;2023-04-30T04:48:44;7.88;;;3.83;;
43744;SDS011;29359;53.048;8.732;2023-04-30T04:50:46;8.50;;;4.32;;
43744;SDS011;29359;53.048;8.732;2023-04-30T04:52:48;6.32;;;4.05;;
43744;SDS011;29359;53.048;8.732;2023-04-30T04:54:49;7.22;;;4.28;;
43744;SDS011;29359;53.048;8.732;2023-04-30T04:56:51;8.35;;;4.90;;
43744;SDS011;29359;53.048;8.732;2023-04-30T04:58:53;8.05;;;4.47;;
43744;SDS011;29359;53.048;8.732;2023-04-30T05:00:54;10.55;;;4.35;;
43744;SDS011;29359;53.048;8.732;2023-04-30T05:02:57;6.57;;;4.28;;
43744;SDS011;29359;53.048;8.732;2023-04-30T05:04:59;8.38;;;4.53;;
43744;SDS011;29359;53.048;8.732;2023-04-30T05:07:01;6.32;;;4.13;;
43744;SDS011;29359;53.048;8.732;2023-04-30T05:09:03;6.47;;;4.03;;
43744;SDS011;29359;53.048;8.732;2023-04-30T05:11:09;6.93;;;3.72;;
43744;SDS011;29359;53.048;8.732;2023-04-30T05:13:10;7.18;;;4.35;;
43744;SDS011;29359;53.048;8.732;2023-04-30T05:15:12;7.20;;;3.97;;
43744;SDS011;29359;53.048;8.732;2023-04-30T05:17:13;9.52;;;3.90;;
43744;SDS011;29359;53.048;8.732;2023-04-30T05:19:15;9.25;;;4.30;;
43744;SDS011;29359;53.048;8.732;2023-04-30T05:21:16;6.20;;;4.47;;
43744;SDS011;29359;53.048;8.732;2023-04-30T05:23:18;9.20;;;5.07;;
43744;SDS011;29359;53.048;8.732;2023-04-30T05:25:19;13.07;;;5.05;;
43744;SDS011;29359;53.048;8.732;2023-04-30T05:27:21;16.52;;;5.82;;
43744;SDS011;29359;53.048;8.732;2023-04-30T05:29:22;17.30;;;5.85;;
43744;SDS011;29359;53.048;8.732;2023-04-30T05:31:24;11.57;;;4.97;;
43744;SDS011;29359;53.048;8.732;2023-04-30T05:33:25;17.25;;;5.75;;
43744;SDS011;29359;53.048;8.732;2023-04-30T05:35:27;14.52;;;5.00;;
43744;SDS011;29359;53.048;8.732;2023-04-30T05:37:30;16.42;;;5.93;;
43744;SDS011;29359;53.048;8.732;2023-04-30T05:39:32;10.77;;;5.20;;
43744;SDS011;29359;53.048;8.732;2023-04-30T05:41:33;7.07;;;4.72;;
43744;SDS011;29359;53.048;8.732;2023-04-30T05:43:35;10.65;;;5.22;;
43744;SDS011;29359;53.048;8.732;2023-04-30T05:45:36;14.93;;;5.22;;
43744;SDS011;29359;53.048;8.732;2023-04-30T05:47:38;8.88;;;5.47;;
43744;SDS011;29359;53.048;8.732;2023-04-30T05:49:39;15.05;;;5.90;;
43744;SDS011;29359;53.048;8.732;2023-04-30T05:51:41;13.02;;;5.43;;
43744;SDS011;29359;53.048;8.732;2023-04-30T05:53:42;20.55;;;5.03;;
43744;SDS011;29359;53.048;8.732;2023-04-30T05:55:44;11.85;;;4.85;;
43744;SDS011;29359;53.048;8.732;2023-04-30T05:57:45;12.10;;;4.75;;
43744;SDS011;29359;53.048;8.732;2023-04-30T05:59:47;12.77;;;4.90;;
43744;SDS011;29359;53.048;8.732;2023-04-30T06:01:49;6.65;;;4.82;;
43744;SDS011;29359;53.048;8.732;2023-04-30T06:03:50;14.00;;;5.43;;
43744;SDS011;29359;53.048;8.732;2023-04-30T06:05:52;15.15;;;5.05;;
43744;SDS011;29359;53.048;8.732;2023-04-30T06:07:54;13.32;;;4.85;;
43744;SDS011;29359;53.048;8.732;2023-04-30T06:09:56;16.85;;;4.30;;
43744;SDS011;29359;53.048;8.732;2023-04-30T06:11:57;7.50;;;4.22;;
43744;SDS011;29359;53.048;8.732;2023-04-30T06:13:59;9.98;;;4.18;;
43744;SDS011;29359;53.048;8.732;2023-04-30T06:16:01;17.58;;;5.25;;
43744;SDS011;29359;53.048;8.732;2023-04-30T06:18:02;10.57;;;3.47;;
43744;SDS011;29359;53.048;8.732;2023-04-30T06:20:04;10.60;;;4.05;;
43744;SDS011;29359;53.048;8.732;2023-04-30T06:22:07;8.65;;;3.10;;
43744;SDS011;29359;53.048;8.732;2023-04-30T06:24:08;8.68;;;3.42;;
43744;SDS011;29359;53.048;8.732;2023-04-30T06:26:10;6.47;;;3.75;;
43744;SDS011;29359;53.048;8.732;2023-04-30T06:28:15;7.25;;;3.00;;
43744;SDS011;29359;53.048;8.732;2023-04-30T06:30:16;6.60;;;3.25;;
43744;SDS011;29359;53.048;8.732;2023-04-30T06:32:18;5.72;;;3.38;;
43744;SDS011;29359;53.048;8.732;2023-04-30T06:34:19;9.70;;;3.42;;
43744;SDS011;29359;53.048;8.732;2023-04-30T06:36:21;10.13;;;3.35;;
43744;SDS011;29359;53.048;8.732;2023-04-30T06:38:22;11.45;;;3.22;;
43744;SDS011;29359;53.048;8.732;2023-04-30T06:40:24;7.32;;;2.80;;
43744;SDS011;29359;53.048;8.732;2023-04-30T06:42:26;11.90;;;4.00;;
43744;SDS011;29359;53.048;8.732;2023-04-30T06:44:27;8.82;;;3.53;;
43744;SDS011;29359;53.048;8.732;2023-04-30T06:46:29;9.38;;;3.22;;
43744;SDS011;29359;53.048;8.732;2023-04-30T06:48:31;14.68;;;3.80;;
43744;SDS011;29359;53.048;8.732;2023-04-30T06:50:33;9.68;;;3.30;;
43744;SDS011;29359;53.048;8.732;2023-04-30T06:52:34;12.68;;;3.42;;
43744;SDS011;29359;53.048;8.732;2023-04-30T06:54:36;12.32;;;3.67;;
43744;SDS011;29359;53.048;8.732;2023-04-30T06:56:37;9.52;;;3.17;;
43744;SDS011;29359;53.048;8.732;2023-04-30T06:58:39;4.32;;;2.65;;
43744;SDS011;29359;53.048;8.732;2023-04-30T07:00:41;7.80;;;3.53;;
43744;SDS011;29359;53.048;8.732;2023-04-30T07:02:42;10.35;;;3.10;;
43744;SDS011;29359;53.048;8.732;2023-04-30T07:04:44;7.68;;;3.20;;
43744;SDS011;29359;53.048;8.732;2023-04-30T07:06:46;10.75;;;3.40;;
43744;SDS011;29359;53.048;8.732;2023-04-30T07:08:47;8.48;;;3.40;;
43744;SDS011;29359;53.048;8.732;2023-04-30T07:10:49;9.10;;;3.10;;
43744;SDS011;29359;53.048;8.732;2023-04-30T07:12:50;8.77;;;2.97;;
43744;SDS011;29359;53.048;8.732;2023-04-30T07:14:52;7.60;;;2.63;;
43744;SDS011;29359;53.048;8.732;2023-04-30T07:16:53;14.82;;;3.10;;
43744;SDS011;29359;53.048;8.732;2023-04-30T07:18:55;6.93;;;2.88;;
43744;SDS011;29359;53.048;8.732;2023-04-30T07:20:57;11.20;;;2.40;;
43744;SDS011;29359;53.048;8.732;2023-04-30T07:22:58;6.65;;;2.35;;
43744;SDS011;29359;53.048;8.732;2023-04-30T07:25:00;11.60;;;3.13;;
43744;SDS011;29359;53.048;8.732;2023-04-30T07:27:01;7.65;;;2.42;;
43744;SDS011;29359;53.048;8.732;2023-04-30T07:29:04;7.72;;;2.50;;
43744;SDS011;29359;53.048;8.732;2023-04-30T07:31:05;7.88;;;2.47;;
43744;SDS011;29359;53.048;8.732;2023-04-30T07:33:08;7.70;;;2.75;;
43744;SDS011;29359;53.048;8.732;2023-04-30T07:35:09;8.75;;;2.15;;
43744;SDS011;29359;53.048;8.732;2023-04-30T07:37:11;5.72;;;1.60;;
43744;SDS011;29359;53.048;8.732;2023-04-30T07:39:13;7.80;;;2.05;;
43744;SDS011;29359;53.048;8.732;2023-04-30T07:41:15;5.28;;;1.80;;
43744;SDS011;29359;53.048;8.732;2023-04-30T07:43:16;7.43;;;1.55;;
43744;SDS011;29359;53.048;8.732;2023-04-30T07:45:18;4.45;;;1.85;;
43744;SDS011;29359;53.048;8.732;2023-04-30T07:47:19;6.72;;;1.70;;
43744;SDS011;29359;53.048;8.732;2023-04-30T07:49:21;9.18;;;2.00;;
43744;SDS011;29359;53.048;8.732;2023-04-30T07:51:22;4.78;;;1.50;;
43744;SDS011;29359;53.048;8.732;2023-04-30T07:53:24;8.82;;;1.92;;
43744;SDS011;29359;53.048;8.732;2023-04-30T07:55:26;3.90;;;1.73;;
43744;SDS011;29359;53.048;8.732;2023-04-30T07:57:27;8.63;;;2.33;;
43744;SDS011;29359;53.048;8.732;2023-04-30T07:59:29;5.97;;;1.50;;
43744;SDS011;29359;53.048;8.732;2023-04-30T08:01:30;11.90;;;2.40;;
43744;SDS011;29359;53.048;8.732;2023-04-30T08:03:32;7.95;;;1.80;;
43744;SDS011;29359;53.048;8.732;2023-04-30T08:05:34;6.95;;;1.65;;
43744;SDS011;29359;53.048;8.732;2023-04-30T08:07:35;9.15;;;2.80;;
43744;SDS011;29359;53.048;8.732;2023-04-30T08:09:37;13.52;;;1.70;;
43744;SDS011;29359;53.048;8.732;2023-04-30T08:11:38;5.30;;;2.22;;
43744;SDS011;29359;53.048;8.732;2023-04-30T08:13:40;4.78;;;2.15;;
43744;SDS011;29359;53.048;8.732;2023-04-30T08:15:42;9.55;;;2.10;;
43744;SDS011;29359;53.048;8.732;2023-04-30T08:17:44;6.60;;;1.92;;
43744;SDS011;29359;53.048;8.732;2023-04-30T08:19:45;10.13;;;1.83;;
43744;SDS011;29359;53.048;8.732;2023-04-30T08:21:47;6.57;;;1.40;;
43744;SDS011;29359;53.048;8.732;2023-04-30T08:23:49;9.95;;;2.13;;
43744;SDS011;29359;53.048;8.732;2023-04-30T08:25:50;5.10;;;1.77;;
43744;SDS011;29359;53.048;8.732;2023-04-30T08:27:52;10.20;;;1.83;;
43744;SDS011;29359;53.048;8.732;2023-04-30T08:29:54;6.72;;;1.63;;
43744;SDS011;29359;53.048;8.732;2023-04-30T08:31:56;6.07;;;1.77;;
43744;SDS011;29359;53.048;8.732;2023-04-30T08:34:02;6.80;;;2.10;;
43744;SDS011;29359;53.048;8.732;2023-04-30T08:36:04;6.68;;;1.92;;
43744;SDS011;29359;53.048;8.732;2023-04-30T08:38:05;9.88;;;1.90;;
43744;SDS011;29359;53.048;8.732;2023-04-30T08:40:07;13.07;;;1.90;;
43744;SDS011;29359;53.048;8.732;2023-04-30T08:42:13;5.40;;;1.80;;
43744;SDS011;29359;53.048;8.732;2023-04-30T08:44:15;7.32;;;1.80;;
43744;SDS011;29359;53.048;8.732;2023-04-30T08:46:19;7.43;;;1.50;;
43744;SDS011;29359;53.048;8.732;2023-04-30T08:48:22;4.30;;;1.50;;
43744;SDS011;29359;53.048;8.732;2023-04-30T08:50:25;6.22;;;1.92;;
43744;SDS011;29359;53.048;8.732;2023-04-30T08:52:27;5.75;;;1.83;;
43744;SDS011;29359;53.048;8.732;2023-04-30T08:54:31;7.18;;;1.63;;
43744;SDS011;29359;53.048;8.732;2023-04-30T08:56:33;10.00;;;2.25;;
43744;SDS011;29359;53.048;8.732;2023-04-30T08:58:35;11.38;;;2.28;;
43744;SDS011;29359;53.048;8.732;2023-04-30T09:00:38;10.73;;;1.90;;
43744;SDS011;29359;53.048;8.732;2023-04-30T09:02:40;3.92;;;1.75;;
43744;SDS011;29359;53.048;8.732;2023-04-30T09:04:43;5.47;;;1.83;;
43744;SDS011;29359;53.048;8.732;2023-04-30T09:06:45;5.30;;;2.08;;
43744;SDS011;29359;53.048;8.732;2023-04-30T09:08:47;5.22;;;1.75;;
43744;SDS011;29359;53.048;8.732;2023-04-30T09:10:50;8.50;;;1.75;;
43744;SDS011;29359;53.048;8.732;2023-04-30T09:13:01;6.72;;;2.10;;
43744;SDS011;29359;53.048;8.732;2023-04-30T09:15:09;6.80;;;2.08;;
43744;SDS011;29359;53.048;8.732;2023-04-30T09:17:13;8.25;;;2.20;;
43744;SDS011;29359;53.048;8.732;2023-04-30T09:19:22;12.40;;;2.38;;
43744;SDS011;29359;53.048;8.732;2023-04-30T09:21:31;3.90;;;1.67;;
43744;SDS011;29359;53.048;8.732;2023-04-30T09:23:33;8.77;;;1.88;;
43744;SDS011;29359;53.048;8.732;2023-04-30T09:25:39;8.05;;;1.77;;
43744;SDS011;29359;53.048;8.732;2023-04-30T09:27:41;7.50;;;1.80;;
43744;SDS011;29359;53.048;8.732;2023-04-30T09:29:44;11.52;;;2.72;;
43744;SDS011;29359;53.048;8.732;2023-04-30T09:31:46;6.05;;;1.95;;
43744;SDS011;29359;53.048;8.732;2023-04-30T09:33:48;8.93;;;1.90;;
43744;SDS011;29359;53.048;8.732;2023-04-30T09:35:49;7.15;;;1.77;;
43744;SDS011;29359;53.048;8.732;2023-04-30T09:37:51;8.70;;;2.17;;
43744;SDS011;29359;53.048;8.732;2023-04-30T09:39:53;6.70;;;2.10;;
43744;SDS011;29359;53.048;8.732;2023-04-30T09:42:08;4.75;;;1.88;;
43744;SDS011;29359;53.048;8.732;2023-04-30T09:46:32;11.02;;;2.22;;
43744;SDS011;29359;53.048;8.732;2023-04-30T09:48:39;4.03;;;1.67;;
43744;SDS011;29359;53.048;8.732;2023-04-30T09:50:41;9.65;;;2.45;;
43744;SDS011;29359;53.048;8.732;2023-04-30T09:52:52;8.95;;;2.05;;
43744;SDS011;29359;53.048;8.732;2023-04-30T09:54:54;11.50;;;2.20;;
43744;SDS011;29359;53.048;8.732;2023-04-30T09:56:56;8.43;;;1.77;;
43744;SDS011;29359;53.048;8.732;2023-04-30T09:58:59;10.45;;;2.25;;
43744;SDS011;29359;53.048;8.732;2023-04-30T10:01:04;13.98;;;2.00;;
43744;SDS011;29359;53.048;8.732;2023-04-30T10:03:08;8.57;;;1.90;;
43744;SDS011;29359;53.048;8.732;2023-04-30T10:05:11;10.10;;;2.17;;
43744;SDS011;29359;53.048;8.732;2023-04-30T10:07:16;4.97;;;1.80;;
43744;SDS011;29359;53.048;8.732;2023-04-30T10:09:23;10.23;;;2.13;;
43744;SDS011;29359;53.048;8.732;2023-04-30T10:11:29;6.38;;;2.20;;
43744;SDS011;29359;53.048;8.732;2023-04-30T10:13:37;5.75;;;1.98;;
43744;SDS011;29359;53.048;8.732;2023-04-30T10:15:44;7.10;;;2.00;;
43744;SDS011;29359;53.048;8.732;2023-04-30T10:17:52;4.47;;;1.65;;
43744;SDS011;29359;53.048;8.732;2023-04-30T10:20:08;4.10;;;1.98;;
43744;SDS011;29359;53.048;8.732;2023-04-30T10:22:10;3.63;;;1.90;;
43744;SDS011;29359;53.048;8.732;2023-04-30T10:24:12;6.38;;;2.22;;
43744;SDS011;29359;53.048;8.732;2023-04-30T10:26:15;5.28;;;1.73;;
43744;SDS011;29359;53.048;8.732;2023-04-30T10:28:18;5.25;;;1.40;;
43744;SDS011;29359;53.048;8.732;2023-04-30T10:30:20;4.82;;;1.83;;
43744;SDS011;29359;53.048;8.732;2023-04-30T10:32:23;5.25;;;1.73;;
43744;SDS011;29359;53.048;8.732;2023-04-30T10:34:47;3.83;;;1.67;;
43744;SDS011;29359;53.048;8.732;2023-04-30T10:36:59;9.43;;;1.90;;
43744;SDS011;29359;53.048;8.732;2023-04-30T10:39:26;4.13;;;1.30;;
43744;SDS011;29359;53.048;8.732;2023-04-30T10:41:29;6.32;;;1.88;;
43744;SDS011;29359;53.048;8.732;2023-04-30T10:43:31;7.90;;;2.70;;
43744;SDS011;29359;53.048;8.732;2023-04-30T10:45:36;6.53;;;1.55;;
43744;SDS011;29359;53.048;8.732;2023-04-30T10:47:41;6.07;;;1.80;;
43744;SDS011;29359;53.048;8.732;2023-04-30T10:49:46;4.03;;;1.60;;
43744;SDS011;29359;53.048;8.732;2023-04-30T10:51:50;4.05;;;1.50;;
43744;SDS011;29359;53.048;8.732;2023-04-30T10:53:55;10.52;;;1.45;;
43744;SDS011;29359;53.048;8.732;2023-04-30T10:55:58;5.07;;;1.42;;
43744;SDS011;29359;53.048;8.732;2023-04-30T10:58:22;9.20;;;1.63;;
43744;SDS011;29359;53.048;8.732;2023-04-30T11:00:28;3.92;;;1.48;;
43744;SDS011;29359;53.048;8.732;2023-04-30T11:07:08;4.45;;;1.50;;
43744;SDS011;29359;53.048;8.732;2023-04-30T11:09:10;4.80;;;1.38;;
43744;SDS011;29359;53.048;8.732;2023-04-30T11:11:18;4.07;;;1.30;;
43744;SDS011;29359;53.048;8.732;2023-04-30T11:13:24;2.95;;;1.25;;
43744;SDS011;29359;53.048;8.732;2023-04-30T11:15:30;5.38;;;1.50;;
43744;SDS011;29359;53.048;8.732;2023-04-30T11:17:34;6.65;;;1.23;;
43744;SDS011;29359;53.048;8.732;2023-04-30T11:19:41;8.25;;;1.60;;
43744;SDS011;29359;53.048;8.732;2023-04-30T11:22:30;6.13;;;1.40;;
43744;SDS011;29359;53.048;8.732;2023-04-30T11:24:15;4.05;;;1.40;;
43744;SDS011;29359;53.048;8.732;2023-04-30T11:26:19;3.22;;;1.30;;
43744;SDS011;29359;53.048;8.732;2023-04-30T11:28:24;5.25;;;1.42;;
43744;SDS011;29359;53.048;8.732;2023-04-30T11:30:27;4.93;;;1.45;;
43744;SDS011;29359;53.048;8.732;2023-04-30T11:32:33;5.40;;;1.52;;
43744;SDS011;29359;53.048;8.732;2023-04-30T11:34:36;5.40;;;1.20;;
43744;SDS011;29359;53.048;8.732;2023-04-30T11:36:38;6.53;;;1.55;;
43744;SDS011;29359;53.048;8.732;2023-04-30T11:38:41;4.68;;;1.42;;
43744;SDS011;29359;53.048;8.732;2023-04-30T11:40:43;3.35;;;1.50;;
43744;SDS011;29359;53.048;8.732;2023-04-30T11:42:45;5.20;;;1.60;;
43744;SDS011;29359;53.048;8.732;2023-04-30T11:44:48;4.80;;;1.30;;
43744;SDS011;29359;53.048;8.732;2023-04-30T11:46:49;4.18;;;1.30;;
43744;SDS011;29359;53.048;8.732;2023-04-30T11:48:51;5.13;;;1.30;;
43744;SDS011;29359;53.048;8.732;2023-04-30T11:50:53;7.47;;;1.55;;
43744;SDS011;29359;53.048;8.732;2023-04-30T11:52:55;4.88;;;2.28;;
43744;SDS011;29359;53.048;8.732;2023-04-30T11:54:57;3.38;;;1.50;;
43744;SDS011;29359;53.048;8.732;2023-04-30T11:57:00;4.32;;;1.30;;
43744;SDS011;29359;53.048;8.732;2023-04-30T11:59:11;4.40;;;1.35;;
43744;SDS011;29359;53.048;8.732;2023-04-30T12:01:13;7.25;;;1.25;;
43744;SDS011;29359;53.048;8.732;2023-04-30T12:03:15;4.45;;;1.40;;
43744;SDS011;29359;53.048;8.732;2023-04-30T12:05:18;4.13;;;1.45;;
43744;SDS011;29359;53.048;8.732;2023-04-30T12:07:21;4.75;;;1.40;;
43744;SDS011;29359;53.048;8.732;2023-04-30T12:09:24;3.45;;;1.25;;
43744;SDS011;29359;53.048;8.732;2023-04-30T12:11:27;2.58;;;1.40;;
43744;SDS011;29359;53.048;8.732;2023-04-30T12:13:32;5.32;;;1.30;;
43744;SDS011;29359;53.048;8.732;2023-04-30T12:15:34;6.70;;;1.63;;
43744;SDS011;29359;53.048;8.732;2023-04-30T12:17:35;4.32;;;1.35;;
43744;SDS011;29359;53.048;8.732;2023-04-30T12:19:37;2.30;;;1.15;;
43744;SDS011;29359;53.048;8.732;2023-04-30T12:21:39;3.88;;;1.60;;
43744;SDS011;29359;53.048;8.732;2023-04-30T12:23:42;3.85;;;1.38;;
43744;SDS011;29359;53.048;8.732;2023-04-30T12:25:45;2.58;;;1.30;;
43744;SDS011;29359;53.048;8.732;2023-04-30T12:27:48;2.95;;;1.13;;
43744;SDS011;29359;53.048;8.732;2023-04-30T12:29:52;3.63;;;1.45;;
43744;SDS011;29359;53.048;8.732;2023-04-30T12:31:56;4.97;;;1.35;;
43744;SDS011;29359;53.048;8.732;2023-04-30T12:34:06;5.53;;;1.60;;
43744;SDS011;29359;53.048;8.732;2023-04-30T12:36:09;8.93;;;1.45;;
43744;SDS011;29359;53.048;8.732;2023-04-30T12:38:14;6.50;;;1.80;;
43744;SDS011;29359;53.048;8.732;2023-04-30T12:40:17;3.63;;;1.55;;